Time;durP1;ratioP1;P1;durP2;ratioP2;P2;SDS_P1;SDS_P2;PMS_P1;PMS_P2;Temp;Humidity;BMP_temperature;BMP_pressure;BME280_temperature;BME280_humidity;BME280_pressure;Samples;Min_cycle;Max_cycle;Signal;HPM_P1;HPM_P2
2022/11/15 00:00:42;;;;;;;10.07;5.18;;;19.90;58.00;;;;;;5088888;28;20448;-53
2022/11/15 00:03:28;;;;;;;6.38;4.70;;;19.90;58.00;;;;;;5088690;28;20040;-53
2022/11/15 00:06:14;;;;;;;5.88;4.30;;;19.90;58.10;;;;;;5088577;28;20035;-54
2022/11/15 00:09:01;;;;;;;6.47;3.63;;;19.90;58.10;;;;;;5088356;28;20048;-52
2022/11/15 00:11:46;;;;;;;10.95;4.10;;;19.90;58.10;;;;;;5088910;28;20044;-54
2022/11/15 00:14:33;;;;;;;6.20;2.58;;;19.90;58.10;;;;;;5084673;28;20156;-50
2022/11/15 00:17:18;;;;;;;7.38;3.00;;;19.90;58.10;;;;;;5068066;28;20094;-54
2022/11/15 00:20:05;;;;;;;6.38;3.13;;;19.90;58.10;;;;;;5068088;28;20560;-52
2022/11/15 00:22:50;;;;;;;6.40;4.63;;;19.90;58.10;;;;;;5068279;28;20044;-50
2022/11/15 00:25:36;;;;;;;3.45;2.10;;;19.90;58.10;;;;;;5068278;28;20513;-54
2022/11/15 00:28:21;;;;;;;5.38;2.53;;;19.90;58.10;;;;;;5068375;28;20036;-53
2022/11/15 00:31:12;;;;;;;5.50;1.67;;;19.90;58.00;;;;;;5068017;28;20492;-54
2022/11/15 00:33:57;;;;;;;5.97;2.17;;;19.90;58.00;;;;;;5067838;28;20048;-51
2022/11/15 00:36:43;;;;;;;8.20;1.20;;;19.90;58.00;;;;;;5087091;28;20398;-52
2022/11/15 00:39:28;;;;;;;1.52;1.02;;;19.90;57.90;;;;;;5087302;28;20052;-53
2022/11/15 00:42:14;;;;;;;5.93;1.80;;;19.90;57.90;;;;;;5088123;28;20040;-54
2022/11/15 00:44:59;;;;;;;1.52;0.73;;;19.90;58.00;;;;;;5087692;28;20476;-50
2022/11/15 00:47:47;;;;;;;1.08;0.52;;;19.90;58.00;;;;;;5088332;28;20047;-52
2022/11/15 00:50:32;;;;;;;1.85;0.90;;;19.90;58.00;;;;;;5088086;28;20119;-56
2022/11/15 00:53:18;;;;;;;3.65;0.73;;;19.90;58.00;;;;;;5087872;28;20068;-54
2022/11/15 00:56:04;;;;;;;2.33;0.60;;;19.80;57.90;;;;;;5087705;28;20036;-54
2022/11/15 00:58:50;;;;;;;3.30;1.08;;;19.80;57.90;;;;;;5087990;28;20048;-55
2022/11/15 01:01:36;;;;;;;1.52;0.43;;;19.80;57.90;;;;;;5088184;28;20516;-54
2022/11/15 01:04:22;;;;;;;0.32;0.32;;;19.80;57.90;;;;;;5072176;28;20036;-51
2022/11/15 01:07:08;;;;;;;1.55;0.45;;;19.80;57.90;;;;;;5049843;28;20049;-52
2022/11/15 01:09:54;;;;;;;2.10;0.50;;;19.80;57.90;;;;;;5067665;28;20040;-53
2022/11/15 01:12:39;;;;;;;1.65;0.30;;;19.80;57.90;;;;;;5087714;28;20044;-53
2022/11/15 01:15:25;;;;;;;0.80;0.38;;;19.80;57.80;;;;;;5087404;28;20044;-53
2022/11/15 01:18:10;;;;;;;2.30;0.20;;;19.80;57.80;;;;;;5088143;28;20047;-55
2022/11/15 01:20:57;;;;;;;0.90;0.20;;;19.80;57.80;;;;;;5087753;28;20040;-56
2022/11/15 01:23:43;;;;;;;;;;;19.70;57.80;;;;;;5088305;28;20052;-54
2022/11/15 01:26:28;;;;;;;0.47;0.30;;;19.70;57.70;;;;;;5087801;28;20010;-53
2022/11/15 01:29:14;;;;;;;4.38;0.28;;;19.70;58.00;;;;;;5087347;28;20040;-52
2022/11/15 01:31:59;;;;;;;2.20;0.13;;;19.70;58.00;;;;;;5087769;28;20227;-51
2022/11/15 01:34:45;;;;;;;0.50;0.32;;;19.70;58.00;;;;;;5087342;28;20036;-53
2022/11/15 01:37:32;;;;;;;2.75;0.30;;;19.70;58.10;;;;;;5087836;28;20512;-52
2022/11/15 01:40:18;;;;;;;2.65;0.25;;;19.70;58.10;;;;;;5087814;28;20119;-50
2022/11/15 01:43:22;;;;;;;3.78;0.10;;;19.70;58.10;;;;;;5087277;28;20540;-50
2022/11/15 01:46:22;;;;;;;1.38;0.30;;;19.70;58.10;;;;;;5106876;28;20385;-56
2022/11/15 01:49:15;;;;;;;0.47;0.10;;;19.70;58.10;;;;;;5107893;28;20059;-54
2022/11/15 01:52:04;;;;;;;1.08;0.10;;;19.70;58.10;;;;;;5098677;28;20037;-51
2022/11/15 01:54:56;;;;;;;0.13;0.10;;;19.70;58.00;;;;;;5071434;28;20143;-51
2022/11/15 01:57:45;;;;;;;0.68;0.10;;;19.70;58.00;;;;;;5070501;28;20045;-52
2022/11/15 02:00:31;;;;;;;1.52;0.10;;;19.70;58.00;;;;;;5071161;28;20040;-52
2022/11/15 02:03:16;;;;;;;1.40;0.10;;;19.70;57.90;;;;;;5070913;28;20047;-50
2022/11/15 02:06:04;;;;;;;0.75;0.13;;;19.70;57.80;;;;;;5083883;28;20036;-52
2022/11/15 02:08:51;;;;;;;1.42;0.10;;;19.70;57.80;;;;;;5091447;28;20055;-54
2022/11/15 02:11:38;;;;;;;0.30;0.10;;;19.70;57.80;;;;;;5090832;28;20416;-56
2022/11/15 02:14:26;;;;;;;1.23;0.10;;;19.60;57.60;;;;;;5091360;28;20063;-51
2022/11/15 02:17:28;;;;;;;0.68;0.10;;;19.70;57.70;;;;;;5091091;28;20044;-54
2022/11/15 02:20:44;;;;;;;0.90;0.38;;;19.60;57.50;;;;;;5090956;28;20036;-53
2022/11/15 02:23:53;;;;;;;4.97;0.20;;;19.60;57.40;;;;;;5091085;28;20508;-52
2022/11/15 02:27:27;;;;;;;3.78;0.68;;;19.60;57.50;;;;;;5090437;28;20101;-52
2022/11/15 02:30:22;;;;;;;0.20;0.10;;;19.60;57.40;;;;;;5090902;28;20126;-54
2022/11/15 02:33:16;;;;;;;1.20;0.10;;;19.60;57.40;;;;;;5091207;28;20044;-49
2022/11/15 02:36:03;;;;;;;2.17;0.10;;;19.60;57.40;;;;;;5090603;28;20032;-50
2022/11/15 02:38:58;;;;;;;0.20;0.10;;;19.60;57.40;;;;;;5090680;28;20603;-52
2022/11/15 02:41:52;;;;;;;0.10;0.10;;;19.60;57.30;;;;;;5090097;28;20050;-52
2022/11/15 02:44:43;;;;;;;1.88;0.10;;;19.50;57.20;;;;;;5090608;28;20519;-53
2022/11/15 02:47:34;;;;;;;1.10;0.10;;;19.50;57.20;;;;;;5090679;28;20142;-52
2022/11/15 02:50:24;;;;;;;0.95;0.28;;;19.50;57.30;;;;;;5090415;28;20040;-54
2022/11/15 02:53:10;;;;;;;0.85;0.10;;;19.50;57.20;;;;;;5090347;28;20169;-54
2022/11/15 02:55:58;;;;;;;0.52;0.10;;;19.50;57.20;;;;;;5090353;28;20411;-49
2022/11/15 02:59:08;;;;;;;0.98;0.10;;;19.50;57.20;;;;;;5090184;28;20067;-55
2022/11/15 03:02:09;;;;;;;2.38;0.95;;;19.50;57.10;;;;;;5089004;28;20052;-53
2022/11/15 03:04:59;;;;;;;1.67;0.75;;;19.50;57.10;;;;;;5089820;28;20504;-51
2022/11/15 03:07:53;;;;;;;0.77;0.10;;;19.50;57.10;;;;;;5090101;28;20086;-54
2022/11/15 03:10:47;;;;;;;1.65;0.10;;;19.50;57.00;;;;;;5089712;28;20055;-51
2022/11/15 03:13:38;;;;;;;0.35;0.17;;;19.50;56.90;;;;;;5090212;28;20044;-53
2022/11/15 03:16:31;;;;;;;0.10;0.10;;;19.50;56.90;;;;;;5071482;28;20180;-50
2022/11/15 03:19:22;;;;;;;0.85;0.10;;;19.40;56.80;;;;;;5089803;28;20036;-54
2022/11/15 03:22:12;;;;;;;1.45;0.10;;;19.50;56.80;;;;;;5089828;28;20035;-50
2022/11/15 03:25:01;;;;;;;0.32;0.10;;;19.40;56.70;;;;;;5071543;28;20097;-51
2022/11/15 03:27:51;;;;;;;0.28;0.10;;;19.50;56.70;;;;;;5089768;28;20511;-54
2022/11/15 03:30:38;;;;;;;1.95;0.10;;;19.40;56.60;;;;;;5069503;28;20169;-54
2022/11/15 03:33:24;;;;;;;0.20;0.10;;;19.40;56.50;;;;;;5069219;28;20041;-54
2022/11/15 03:36:10;;;;;;;1.17;0.10;;;19.40;56.40;;;;;;5083427;28;20048;-55
2022/11/15 03:39:00;;;;;;;1.45;0.10;;;19.40;56.30;;;;;;5094184;28;20040;-53
2022/11/15 03:41:50;;;;;;;1.48;0.80;;;19.40;56.30;;;;;;5109823;28;20039;-54
2022/11/15 03:44:42;;;;;;;3.03;0.20;;;19.40;56.20;;;;;;5092749;28;20047;-53
2022/11/15 03:47:33;;;;;;;1.40;0.10;;;19.40;56.20;;;;;;5070757;28;20070;-54
2022/11/15 03:50:21;;;;;;;1.60;0.10;;;19.40;56.10;;;;;;5089127;28;20040;-53
2022/11/15 03:53:06;;;;;;;0.30;0.10;;;19.40;56.10;;;;;;5070757;28;20440;-53
2022/11/15 03:55:53;;;;;;;0.20;0.10;;;19.40;56.60;;;;;;5089256;28;20033;-54
2022/11/15 03:58:39;;;;;;;0.90;0.10;;;19.40;56.00;;;;;;5089110;28;20047;-54
2022/11/15 04:01:24;;;;;;;2.30;0.10;;;19.40;56.00;;;;;;5089257;28;20044;-53
2022/11/15 04:04:10;;;;;;;0.43;0.10;;;19.40;55.90;;;;;;5088496;28;20040;-52
2022/11/15 04:06:55;;;;;;;0.70;0.10;;;19.40;55.80;;;;;;5068533;28;20045;-52
2022/11/15 04:12:46;;;;;;;0.35;0.30;;;19.40;55.80;;;;;;5068344;28;20076;-54
2022/11/15 04:15:31;;;;;;;0.75;0.10;;;19.40;55.90;;;;;;5077922;28;20028;-53
2022/11/15 04:18:17;;;;;;;1.45;0.10;;;19.40;56.00;;;;;;5088371;28;20500;-50
2022/11/15 04:24:15;;;;;;;0.98;0.20;;;19.40;56.00;;;;;;5088935;28;20040;-54
2022/11/15 04:27:01;;;;;;;0.68;0.30;;;19.30;55.90;;;;;;5088856;28;20036;-54
2022/11/15 04:29:49;;;;;;;1.38;1.00;;;19.30;55.90;;;;;;5089189;28;20056;-54
2022/11/15 04:32:34;;;;;;;2.38;0.10;;;19.30;55.90;;;;;;5088778;28;20126;-52
2022/11/15 04:35:20;;;;;;;1.45;0.10;;;19.30;55.90;;;;;;5088704;28;20044;-55
2022/11/15 04:38:07;;;;;;;0.17;0.10;;;19.30;55.90;;;;;;5088239;28;20567;-55
2022/11/15 04:40:53;;;;;;;1.10;0.10;;;19.30;55.90;;;;;;5088566;28;20073;-54
2022/11/15 04:43:39;;;;;;;2.53;1.00;;;19.30;55.80;;;;;;5088897;28;20056;-53
2022/11/15 04:46:26;;;;;;;0.10;0.10;;;19.30;55.70;;;;;;5088257;28;20087;-56
2022/11/15 04:49:11;;;;;;;1.65;0.10;;;19.30;55.70;;;;;;5087816;28;20420;-52
2022/11/15 04:51:57;;;;;;;0.25;0.10;;;19.30;55.70;;;;;;5087588;28;20039;-54
2022/11/15 04:54:43;;;;;;;0.35;0.20;;;19.30;55.70;;;;;;5088803;28;20071;-52
2022/11/15 04:57:28;;;;;;;1.60;0.77;;;19.20;56.20;;;;;;5088001;28;20524;-53
2022/11/15 05:00:16;;;;;;;5.38;0.20;;;19.20;55.60;;;;;;5088021;28;20051;-53
2022/11/15 05:06:07;;;;;;;1.25;0.10;;;19.30;55.60;;;;;;5081826;28;20051;-51
2022/11/15 05:08:53;;;;;;;0.65;0.10;;;19.20;55.50;;;;;;5067908;28;20044;-54
2022/11/15 05:11:38;;;;;;;0.20;0.10;;;19.20;55.60;;;;;;5078862;28;20070;-55
2022/11/15 05:14:24;;;;;;;0.90;0.17;;;19.20;55.60;;;;;;5087914;28;20032;-51
2022/11/15 05:17:09;;;;;;;5.88;0.40;;;19.20;55.60;;;;;;5088009;28;20485;-55
2022/11/15 05:19:57;;;;;;;;;;;19.20;55.60;;;;;;5068872;28;20253;-54
2022/11/15 05:22:43;;;;;;;1.23;0.00;;;19.10;55.50;;;;;;5067674;28;19921;-52
2022/11/15 05:25:29;;;;;;;0.83;0.10;;;19.10;55.70;;;;;;5069350;28;20044;-55
2022/11/15 05:28:14;;;;;;;1.77;0.10;;;19.10;55.70;;;;;;5081337;28;20119;-53
2022/11/15 05:31:02;;;;;;;3.83;0.10;;;19.10;55.60;;;;;;5091543;28;20036;-52
2022/11/15 05:33:48;;;;;;;4.78;0.10;;;19.10;55.70;;;;;;5091900;28;20051;-51
2022/11/15 05:36:38;;;;;;;6.35;0.15;;;19.10;55.70;;;;;;5091282;28;20497;-54
2022/11/15 05:39:25;;;;;;;0.63;0.00;;;19.10;55.70;;;;;;5091668;28;20519;-51
2022/11/15 05:42:13;;;;;;;0.57;0.10;;;19.10;55.70;;;;;;5091383;28;20512;-52
2022/11/15 05:45:00;;;;;;;0.52;0.05;;;19.10;55.70;;;;;;5091286;28;20153;-54
2022/11/15 05:47:46;;;;;;;;;;;19.10;55.70;;;;;;5092935;28;20511;-49
2022/11/15 05:50:33;;;;;;;0.85;0.10;;;19.10;55.60;;;;;;5070685;28;20081;-54
2022/11/15 05:53:22;;;;;;;0.15;0.10;;;19.10;55.80;;;;;;5091408;28;20512;-55
2022/11/15 05:56:09;;;;;;;2.50;0.20;;;19.10;55.70;;;;;;5070998;28;20040;-56
2022/11/15 05:58:57;;;;;;;5.10;0.10;;;19.10;55.70;;;;;;5075281;28;20048;-62
2022/11/15 06:01:43;;;;;;;3.35;0.25;;;19.10;55.40;;;;;;5085841;28;20047;-56
2022/11/15 06:04:28;;;;;;;6.00;0.27;;;19.10;55.60;;;;;;5085102;28;20048;-49
2022/11/15 06:07:14;;;;;;;2.33;0.10;;;19.10;55.90;;;;;;5090864;28;20866;-53
2022/11/15 06:10:01;;;;;;;1.65;0.10;;;19.10;56.10;;;;;;5090674;28;20512;-49
2022/11/15 06:12:47;;;;;;;2.25;0.25;;;19.10;56.20;;;;;;5090486;28;20048;-48
2022/11/15 06:15:34;;;;;;;0.20;0.15;;;19.20;56.40;;;;;;5090770;28;20055;-51
2022/11/15 06:18:19;;;;;;;4.07;0.35;;;19.20;56.40;;;;;;5090564;28;20139;-52
2022/11/15 06:21:06;;;;;;;2.90;0.10;;;19.30;56.90;;;;;;5090221;28;20044;-50
2022/11/15 06:23:51;;;;;;;2.65;0.20;;;19.40;55.90;;;;;;5090579;28;20557;-50
2022/11/15 06:26:38;;;;;;;2.97;0.10;;;19.40;55.60;;;;;;5090383;28;20048;-51
2022/11/15 06:29:23;;;;;;;1.30;0.10;;;19.50;55.40;;;;;;5090484;28;20036;-50
2022/11/15 06:32:09;;;;;;;0.70;0.40;;;19.50;55.80;;;;;;5090341;28;20039;-48
2022/11/15 06:34:54;;;;;;;1.42;0.10;;;19.60;55.10;;;;;;5087488;28;20059;-52
2022/11/15 06:37:40;;;;;;;3.95;0.17;;;19.60;54.90;;;;;;5083509;28;20120;-65
2022/11/15 06:40:25;;;;;;;3.38;0.10;;;19.60;54.90;;;;;;5074748;28;20078;-62
2022/11/15 06:43:12;;;;;;;3.03;0.30;;;19.60;54.90;;;;;;5085824;28;20774;-64
2022/11/15 06:45:59;;;;;;;3.40;0.17;;;19.70;54.90;;;;;;5086177;28;20051;-70
2022/11/15 06:48:44;;;;;;;4.18;0.38;;;19.70;54.90;;;;;;5089887;28;20156;-58
2022/11/15 06:51:30;;;;;;;3.40;0.20;;;19.70;54.70;;;;;;5089669;28;20032;-58
2022/11/15 06:54:15;;;;;;;1.85;0.40;;;19.90;54.70;;;;;;5090068;28;20052;-61
2022/11/15 06:57:01;;;;;;;4.78;0.25;;;20.00;54.30;;;;;;5089992;28;20077;-62
2022/11/15 06:59:48;;;;;;;0.65;0.20;;;20.20;54.10;;;;;;5090165;28;20044;-59
2022/11/15 07:02:34;;;;;;;1.08;0.90;;;20.30;53.90;;;;;;5084663;28;20058;-66
2022/11/15 07:05:19;;;;;;;3.25;0.63;;;20.30;53.50;;;;;;5089524;28;20078;-55
2022/11/15 07:08:05;;;;;;;0.98;0.20;;;20.50;53.50;;;;;;5071264;28;20165;-67
2022/11/15 07:10:51;;;;;;;5.50;1.08;;;20.50;53.20;;;;;;5089600;28;20416;-67
2022/11/15 07:13:37;;;;;;;2.63;0.47;;;20.60;53.00;;;;;;5090037;28;20032;-67
2022/11/15 07:16:24;;;;;;;;;;;20.70;52.80;;;;;;5089923;28;20079;-64
2022/11/15 07:19:10;;;;;;;61.17;22.90;;;20.70;52.90;;;;;;5094214;28;19924;-72
2022/11/15 07:21:56;;;;;;;69.13;27.75;;;20.70;52.90;;;;;;5089771;28;20302;-64
2022/11/15 07:24:41;;;;;;;80.47;34.45;;;20.80;52.70;;;;;;5089359;28;20200;-52
2022/11/15 07:27:27;;;;;;;105.07;42.92;;;20.80;52.60;;;;;;5071072;28;20393;-57
2022/11/15 07:30:14;;;;;;;109.30;44.25;;;20.90;52.60;;;;;;5089164;28;20040;-62
2022/11/15 07:33:02;;;;;;;110.90;47.78;;;20.90;52.50;;;;;;5088091;28;20040;-62
2022/11/15 07:35:49;;;;;;;124.55;52.10;;;21.00;52.30;;;;;;5088970;28;20044;-54
2022/11/15 07:38:35;;;;;;;122.28;56.47;;;21.00;52.30;;;;;;5089137;28;20048;-58
2022/11/15 07:41:21;;;;;;;118.32;53.88;;;21.00;52.10;;;;;;5089045;28;20047;-56
2022/11/15 07:44:06;;;;;;;121.05;53.13;;;21.10;52.10;;;;;;5089172;28;20056;-55
2022/11/15 07:46:52;;;;;;;115.93;51.77;;;21.10;51.90;;;;;;5085962;28;20040;-61
2022/11/15 07:49:39;;;;;;;117.53;55.97;;;21.20;51.80;;;;;;5088187;28;20037;-60
2022/11/15 07:52:25;;;;;;;141.07;59.75;;;21.30;51.80;;;;;;5087996;28;20051;-57
2022/11/15 07:55:11;;;;;;;142.35;63.17;;;21.30;51.70;;;;;;5072117;28;20071;-55
2022/11/15 07:58:01;;;;;;;123.18;53.97;;;21.30;51.70;;;;;;5088637;28;20135;-56
2022/11/15 08:00:47;;;;;;;130.38;62.13;;;21.30;51.40;;;;;;5070375;28;20040;-58
2022/11/15 08:03:33;;;;;;;120.27;56.30;;;21.40;51.50;;;;;;5088673;28;20036;-57
2022/11/15 08:06:20;;;;;;;118.85;59.22;;;21.40;51.40;;;;;;5088209;28;20336;-57
2022/11/15 08:09:05;;;;;;;117.35;57.88;;;21.40;51.30;;;;;;5088497;28;20148;-59
2022/11/15 08:11:50;;;;;;;130.53;57.57;;;21.50;51.30;;;;;;5088086;28;20040;-62
2022/11/15 08:14:36;;;;;;;123.82;53.45;;;21.50;51.30;;;;;;5087868;28;20055;-58
2022/11/15 08:17:22;;;;;;;122.93;55.65;;;21.50;51.20;;;;;;5088396;28;20036;-55
2022/11/15 08:20:09;;;;;;;;;;;21.60;51.20;;;;;;5064018;28;20097;-56
2022/11/15 08:22:56;;;;;;;104.75;50.30;;;21.50;51.20;;;;;;5067936;28;19924;-57
2022/11/15 08:25:42;;;;;;;109.65;55.15;;;21.50;51.20;;;;;;5088362;28;20119;-57
2022/11/15 08:28:28;;;;;;;103.07;49.30;;;21.60;51.10;;;;;;5087870;28;20040;-56
2022/11/15 08:31:16;;;;;;;103.77;52.03;;;21.60;50.90;;;;;;5070192;28;20046;-58
2022/11/15 08:34:03;;;;;;;116.60;54.15;;;21.70;50.90;;;;;;5087848;28;20059;-56
2022/11/15 08:36:48;;;;;;;108.25;50.72;;;21.70;50.90;;;;;;5087634;28;20055;-52
2022/11/15 08:39:35;;;;;;;92.03;48.53;;;21.70;50.80;;;;;;5069825;28;20429;-55
2022/11/15 08:42:20;;;;;;;100.82;49.95;;;21.70;51.30;;;;;;5087694;28;20573;-57
2022/11/15 08:45:07;;;;;;;103.78;49.90;;;21.80;50.60;;;;;;5079735;28;20893;-54
2022/11/15 08:47:52;;;;;;;98.13;49.17;;;21.80;50.60;;;;;;5077397;28;20138;-53
2022/11/15 08:50:38;;;;;;;93.32;46.75;;;21.80;50.50;;;;;;5088091;28;20052;-56
2022/11/15 08:53:24;;;;;;;101.60;48.03;;;21.90;50.50;;;;;;5080112;28;20067;-70
2022/11/15 08:56:13;;;;;;;92.38;45.28;;;21.90;50.40;;;;;;5087639;28;20097;-66
2022/11/15 08:58:58;;;;;;;91.25;47.00;;;21.90;50.30;;;;;;5087253;28;20691;-62
2022/11/15 09:01:44;;;;;;;94.47;44.38;;;21.90;50.20;;;;;;5087719;28;20048;-62
2022/11/15 09:04:30;;;;;;;77.57;40.25;;;22.00;50.20;;;;;;5088306;28;20528;-61
2022/11/15 09:07:16;;;;;;;91.82;46.17;;;22.00;50.10;;;;;;5087534;28;20040;-62
2022/11/15 09:10:01;;;;;;;85.95;42.25;;;22.00;50.10;;;;;;5078527;28;20100;-62
2022/11/15 09:12:49;;;;;;;85.82;42.03;;;22.00;50.00;;;;;;5087455;28;20036;-62
2022/11/15 09:15:34;;;;;;;86.07;44.25;;;22.10;49.90;;;;;;5087744;28;20040;-62
2022/11/15 09:18:22;;;;;;;91.45;42.10;;;22.00;49.70;;;;;;5067617;28;20048;-62
2022/11/15 09:21:08;;;;;;;85.10;43.20;;;22.10;49.60;;;;;;5079648;28;20077;-62
2022/11/15 09:23:54;;;;;;;82.25;41.38;;;22.10;49.50;;;;;;5088071;28;20127;-61
2022/11/15 09:26:39;;;;;;;90.53;47.03;;;22.10;49.50;;;;;;5094821;28;20046;-48
2022/11/15 09:29:26;;;;;;;100.20;53.13;;;22.10;49.60;;;;;;5074223;28;20123;-62
2022/11/15 09:32:12;;;;;;;103.05;54.92;;;22.10;50.20;;;;;;5087571;28;20164;-61
2022/11/15 09:34:58;;;;;;;121.30;60.97;;;22.20;50.60;;;;;;5085572;28;20048;-62
2022/11/15 09:37:44;;;;;;;112.32;53.90;;;22.40;50.90;;;;;;5084480;28;20032;-61
2022/11/15 09:40:31;;;;;;;104.45;50.65;;;22.50;51.00;;;;;;5082538;28;20123;-57
2022/11/15 09:43:41;;;;;;;105.18;48.33;;;22.60;51.00;;;;;;5083406;28;20062;-62
2022/11/15 09:46:43;;;;;;;122.20;52.30;;;22.80;50.80;;;;;;5087746;28;20807;-59
2022/11/15 09:49:18;;;;;;;104.32;48.65;;;22.90;50.70;;;;;;5091258;28;20040;-60
2022/11/15 09:52:22;;;;;;;102.90;50.80;;;23.00;50.50;;;;;;5077219;28;20048;-59
2022/11/15 09:54:51;;;;;;;102.00;49.30;;;23.10;51.00;;;;;;5087885;28;20569;-61
2022/11/15 09:57:22;;;;;;;79.07;44.60;;;23.30;50.20;;;;;;5082660;28;20028;-59
2022/11/15 10:00:10;;;;;;;95.38;49.72;;;23.40;50.00;;;;;;5081976;28;20032;-59
2022/11/15 10:02:59;;;;;;;85.82;44.65;;;23.50;49.80;;;;;;5080282;28;20044;-59
2022/11/15 10:05:28;;;;;;;87.25;46.33;;;23.60;49.70;;;;;;5080230;28;20048;-58
2022/11/15 10:08:03;;;;;;;92.32;47.00;;;23.60;49.60;;;;;;5080883;28;20032;-56
2022/11/15 10:10:36;;;;;;;91.22;48.00;;;23.70;49.40;;;;;;5071485;28;20129;-61
2022/11/15 10:13:04;;;;;;;87.60;46.92;;;23.80;49.50;;;;;;5080386;28;20448;-61
2022/11/15 10:15:32;;;;;;;89.90;45.92;;;23.90;49.30;;;;;;5073949;28;20048;-60
2022/11/15 10:18:16;;;;;;;84.95;45.92;;;24.00;49.10;;;;;;5080962;28;20151;-61
2022/11/15 10:20:49;;;;;;;97.13;54.15;;;24.10;48.80;;;;;;5090124;28;20139;-60
2022/11/15 10:23:19;;;;;;;79.20;40.75;;;24.20;49.20;;;;;;5070455;28;20131;-59
2022/11/15 10:25:47;;;;;;;78.47;41.35;;;24.20;48.60;;;;;;5069588;28;20098;-59
2022/11/15 10:28:17;;;;;;;92.80;51.97;;;24.20;48.20;;;;;;5070431;28;20040;-58
2022/11/15 10:30:46;;;;;;;101.97;51.85;;;24.10;47.80;;;;;;5069541;28;20032;-59
2022/11/15 10:33:27;;;;;;;83.75;47.35;;;24.10;47.80;;;;;;5070762;28;20044;-56
2022/11/15 10:36:17;;;;;;;93.28;54.47;;;24.00;47.60;;;;;;5082258;28;20510;-57
2022/11/15 10:38:58;;;;;;;99.03;53.88;;;24.00;47.60;;;;;;5090666;28;20827;-58
2022/11/15 10:41:36;;;;;;;96.65;57.13;;;23.80;47.80;;;;;;5072471;28;20064;-57
2022/11/15 10:44:19;;;;;;;101.18;58.35;;;23.80;47.90;;;;;;5090554;28;20048;-54
2022/11/15 10:46:50;;;;;;;104.00;59.90;;;23.70;48.10;;;;;;5071724;28;20126;-58
2022/11/15 10:49:20;;;;;;;105.25;63.45;;;23.60;48.10;;;;;;5070563;28;20044;-57
2022/11/15 10:51:49;;;;;;;99.47;62.78;;;23.50;48.30;;;;;;5077651;28;20123;-58
2022/11/15 10:54:24;;;;;;;96.50;60.65;;;23.40;48.40;;;;;;5090094;28;20610;-58
2022/11/15 10:56:53;;;;;;;106.20;59.42;;;23.40;48.60;;;;;;5090309;28;20097;-55
2022/11/15 10:59:25;;;;;;;98.82;58.35;;;23.30;48.50;;;;;;5090382;28;20036;-56
2022/11/15 11:01:52;;;;;;;99.95;56.60;;;23.20;48.70;;;;;;5089666;28;20044;-58
2022/11/15 11:04:21;;;;;;;102.70;59.30;;;23.10;48.80;;;;;;5089640;28;20059;-58
2022/11/15 11:06:50;;;;;;;100.90;61.38;;;23.10;48.90;;;;;;5089616;28;20044;-55
2022/11/15 11:09:29;;;;;;;95.25;55.58;;;23.00;49.00;;;;;;5072038;28;20040;-58
2022/11/15 11:11:57;;;;;;;91.45;55.97;;;23.00;49.10;;;;;;5073826;28;20697;-57
2022/11/15 11:14:27;;;;;;;91.78;55.95;;;22.80;49.10;;;;;;5077121;28;20048;-57
2022/11/15 11:16:57;;;;;;;89.00;57.00;;;22.80;49.20;;;;;;5081481;28;20048;-57
2022/11/15 11:19:47;;;;;;;84.53;53.30;;;22.70;49.30;;;;;;5090199;28;20040;-57
2022/11/15 11:22:23;;;;;;;84.10;53.53;;;22.70;49.40;;;;;;5087615;28;20135;-52
2022/11/15 11:24:55;;;;;;;;;;;22.60;49.50;;;;;;5080385;28;20052;-57
2022/11/15 11:27:35;;;;;;;83.45;51.83;;;22.50;49.50;;;;;;5089953;28;20330;-57
2022/11/15 11:30:09;;;;;;;77.90;52.10;;;22.40;49.80;;;;;;5089913;28;20054;-57
2022/11/15 11:32:51;;;;;;;84.95;49.42;;;22.40;49.80;;;;;;5089941;28;20071;-58
2022/11/15 11:35:24;;;;;;;80.53;50.45;;;22.40;49.90;;;;;;5079106;28;20075;-56
2022/11/15 11:38:00;;;;;;;83.97;50.95;;;22.30;49.90;;;;;;5089658;28;20782;-58
2022/11/15 11:40:34;;;;;;;74.93;51.38;;;22.30;50.00;;;;;;5089990;28;20040;-56
2022/11/15 11:43:08;;;;;;;71.07;49.30;;;22.20;50.10;;;;;;5089501;28;20463;-56
2022/11/15 11:45:59;;;;;;;80.53;51.35;;;22.20;50.30;;;;;;5105676;28;20052;-58
2022/11/15 11:48:40;;;;;;;78.82;51.25;;;22.20;50.40;;;;;;5109982;28;20071;-58
2022/11/15 11:51:16;;;;;;;76.07;51.65;;;22.10;50.50;;;;;;5107700;28;20039;-58
2022/11/15 11:53:50;;;;;;;71.85;46.30;;;22.10;50.60;;;;;;5089651;28;20044;-57
2022/11/15 11:56:27;;;;;;;64.90;43.38;;;22.00;50.70;;;;;;5089306;28;20075;-58
2022/11/15 11:58:57;;;;;;;64.88;47.80;;;22.00;50.90;;;;;;5089279;28;20051;-59
2022/11/15 12:01:27;;;;;;;65.72;44.67;;;22.00;51.00;;;;;;5089577;28;20720;-58
2022/11/15 12:04:00;;;;;;;61.90;43.63;;;21.90;51.00;;;;;;5089326;28;20044;-55
2022/11/15 12:06:34;;;;;;;59.75;40.05;;;21.90;51.10;;;;;;5088777;28;20508;-56
2022/11/15 12:09:07;;;;;;;53.47;37.70;;;21.90;51.20;;;;;;5089074;28;20044;-55
2022/11/15 12:11:44;;;;;;;50.67;34.28;;;21.90;51.30;;;;;;5088210;28;20741;-57
2022/11/15 12:14:22;;;;;;;56.92;34.15;;;21.90;51.40;;;;;;5088488;28;20044;-56
2022/11/15 12:16:49;;;;;;;50.42;32.38;;;21.80;51.70;;;;;;5085227;28;20047;-58
2022/11/15 12:19:16;;;;;;;44.38;31.40;;;21.80;51.70;;;;;;5086150;28;20678;-57
2022/11/15 12:21:51;;;;;;;43.25;30.88;;;21.80;51.90;;;;;;5087702;28;20131;-59
2022/11/15 12:24:22;;;;;;;38.20;25.30;;;21.80;52.00;;;;;;5089370;28;20126;-58
2022/11/15 12:26:55;;;;;;;36.53;23.13;;;21.80;52.10;;;;;;5089660;28;20046;-59
2022/11/15 12:29:28;;;;;;;36.60;25.85;;;21.80;52.10;;;;;;5088266;28;20044;-59
2022/11/15 12:31:59;;;;;;;36.40;23.75;;;21.80;52.10;;;;;;5075228;28;20575;-57
2022/11/15 12:34:44;;;;;;;35.63;21.90;;;21.80;52.20;;;;;;5088434;28;20052;-57
2022/11/15 12:37:57;;;;;;;28.92;19.15;;;21.80;52.20;;;;;;5085129;28;20040;-58
2022/11/15 12:40:37;;;;;;;25.35;16.73;;;21.70;52.10;;;;;;5087102;28;20044;-58
2022/11/15 12:43:34;;;;;;;27.13;18.80;;;21.70;52.20;;;;;;5087716;28;20063;-56
2022/11/15 12:46:05;;;;;;;29.67;19.58;;;21.70;52.20;;;;;;5087478;28;20067;-58
2022/11/15 12:48:54;;;;;;;31.10;18.27;;;21.70;52.30;;;;;;5087666;28;20047;-57
2022/11/15 12:51:43;;;;;;;19.73;14.60;;;21.70;52.30;;;;;;5085747;28;20043;-56
2022/11/15 12:54:47;;;;;;;24.60;14.98;;;21.60;52.40;;;;;;5087097;28;20043;-55
2022/11/15 12:57:40;;;;;;;21.63;13.75;;;21.70;52.50;;;;;;5085256;28;20081;-56
2022/11/15 13:00:48;;;;;;;18.92;12.88;;;21.60;52.40;;;;;;5086538;28;20139;-55
2022/11/15 13:03:24;;;;;;;26.88;12.63;;;21.60;52.50;;;;;;5074005;28;20035;-58
2022/11/15 13:06:08;;;;;;;20.60;11.57;;;21.60;52.60;;;;;;5085194;28;20043;-59
2022/11/15 13:08:50;;;;;;;32.25;12.35;;;21.60;52.70;;;;;;5086813;28;20058;-60
2022/11/15 13:11:43;;;;;;;16.77;9.25;;;21.60;52.80;;;;;;5080088;28;20051;-61
2022/11/15 13:14:46;;;;;;;18.80;10.50;;;21.60;52.80;;;;;;5049640;28;20119;-61
2022/11/15 13:17:32;;;;;;;13.07;8.68;;;21.60;52.90;;;;;;5067922;28;20043;-60
2022/11/15 13:20:17;;;;;;;11.73;7.97;;;21.50;52.90;;;;;;5067683;28;20134;-60
2022/11/15 13:22:51;;;;;;;14.68;7.57;;;21.50;52.90;;;;;;5067666;28;20036;-61
2022/11/15 13:25:25;;;;;;;11.05;6.93;;;21.50;52.90;;;;;;5067814;28;20045;-60
2022/11/15 13:27:54;;;;;;;12.98;6.75;;;21.50;53.00;;;;;;5067882;28;20055;-60
2022/11/15 13:30:24;;;;;;;8.98;7.18;;;21.50;52.90;;;;;;5073947;28;20048;-61
2022/11/15 13:32:53;;;;;;;11.90;6.50;;;21.50;52.90;;;;;;5087517;28;20044;-61
2022/11/15 13:35:23;;;;;;;11.43;6.50;;;21.50;52.90;;;;;;5087799;28;20385;-61
2022/11/15 13:37:51;;;;;;;10.68;6.18;;;21.50;52.90;;;;;;5087840;28;20583;-60
2022/11/15 13:40:30;;;;;;;9.00;4.47;;;21.50;52.90;;;;;;5069889;28;20049;-61
2022/11/15 13:42:58;;;;;;;7.70;5.75;;;21.50;52.90;;;;;;5104433;28;20067;-60
2022/11/15 13:45:27;;;;;;;7.63;4.82;;;21.40;52.90;;;;;;5108096;28;20594;-61
2022/11/15 13:47:56;;;;;;;9.20;5.05;;;21.40;52.90;;;;;;5111781;28;20044;-60
2022/11/15 13:50:27;;;;;;;6.13;4.25;;;21.40;52.90;;;;;;5112106;28;20047;-61
2022/11/15 13:52:57;;;;;;;5.82;3.78;;;21.40;53.00;;;;;;5088402;28;20123;-54
2022/11/15 13:55:25;;;;;;;6.43;4.22;;;21.40;53.10;;;;;;5071137;28;20044;-54
2022/11/15 13:57:55;;;;;;;4.05;2.95;;;21.40;53.60;;;;;;5080992;28;20044;-59
2022/11/15 14:00:38;;;;;;;6.05;2.10;;;21.40;54.00;;;;;;5090995;28;20036;-57
2022/11/15 14:03:16;;;;;;;3.47;1.40;;;21.40;54.00;;;;;;5090630;28;20081;-60
2022/11/15 14:05:45;;;;;;;4.80;1.23;;;21.40;54.30;;;;;;5090902;28;20044;-54
2022/11/15 14:08:24;;;;;;;5.15;2.35;;;21.40;54.50;;;;;;5073017;28;20538;-46
2022/11/15 14:11:08;;;;;;;3.92;1.83;;;21.40;54.60;;;;;;5090512;28;20040;-47
2022/11/15 14:13:35;;;;;;;2.60;1.65;;;21.40;54.80;;;;;;5105583;28;20050;-56